Time;durP1;ratioP1;P1;durP2;ratioP2;P2;SDS_P1;SDS_P2;PMS_P1;PMS_P2;Temp;Humidity;BMP_temperature;BMP_pressure;BME280_temperature;BME280_humidity;BME280_pressure;Samples;Min_cycle;Max_cycle;Signal;HPM_P1;HPM_P2
2022/11/05 00:11:13;;;;;;;4.68;3.70;;;5.10;99.90;;;;;;5039935;28;20039;-78
2022/11/05 00:19:08;;;;;;;6.50;3.67;;;5.20;99.90;;;;;;5032659;28;20052;-79
2022/11/05 00:27:04;;;;;;;5.60;3.83;;;5.40;99.90;;;;;;5037925;28;20503;-79
2022/11/05 00:29:30;;;;;;;9.65;5.40;;;5.40;99.90;;;;;;5036205;28;20025;-78
2022/11/05 00:31:56;;;;;;;5.68;3.95;;;5.50;99.90;;;;;;5028887;28;20482;-78
2022/11/05 00:34:21;;;;;;;6.75;4.40;;;5.50;99.90;;;;;;5039925;28;20033;-79
2022/11/05 00:36:47;;;;;;;6.13;4.25;;;5.60;99.90;;;;;;5044563;28;20132;-79
2022/11/05 00:39:12;;;;;;;4.43;3.75;;;5.60;99.90;;;;;;5035621;28;20037;-78
2022/11/05 00:41:38;;;;;;;17.85;7.93;;;5.60;99.90;;;;;;5041498;28;20037;-78
2022/11/05 00:45:04;;;;;;;22.35;9.15;;;5.70;99.90;;;;;;5042497;28;20037;-79
2022/11/05 00:49:28;;;;;;;29.98;11.77;;;5.70;99.90;;;;;;5020374;28;20054;-78
2022/11/05 00:49:44;;;;;;;9.10;4.82;;;5.70;99.90;;;;;;5026223;28;20049;-79
2022/11/05 00:54:53;;;;;;;69.45;21.55;;;5.80;99.90;;;;;;5038122;28;20044;-79
2022/11/05 00:57:19;;;;;;;114.38;31.98;;;5.90;99.90;;;;;;5038382;28;20033;-79
2022/11/05 00:59:44;;;;;;;43.63;13.70;;;5.90;99.90;;;;;;5038648;28;20061;-79
2022/11/05 01:02:10;;;;;;;13.38;5.88;;;5.90;99.90;;;;;;5040349;28;20560;-79
2022/11/05 01:04:35;;;;;;;7.90;4.03;;;5.90;99.90;;;;;;5039651;28;20477;-79
2022/11/05 01:07:01;;;;;;;5.50;4.72;;;5.90;99.90;;;;;;5040991;28;20092;-78
2022/11/05 01:09:27;;;;;;;8.30;5.75;;;6.00;99.90;;;;;;5032590;28;20025;-79
2022/11/05 01:11:53;;;;;;;7.15;3.88;;;6.00;99.90;;;;;;5037692;28;20152;-78
2022/11/05 01:14:19;;;;;;;9.13;6.78;;;6.00;99.90;;;;;;5042908;28;20076;-79
2022/11/05 01:16:44;;;;;;;17.02;8.05;;;6.00;99.90;;;;;;5042078;28;20029;-79
2022/11/05 01:19:10;;;;;;;9.07;4.97;;;6.10;99.90;;;;;;5031336;28;20061;-78
2022/11/05 01:21:37;;;;;;;32.13;12.57;;;6.00;99.90;;;;;;5037504;28;20046;-77
2022/11/05 01:24:03;;;;;;;19.40;9.48;;;6.10;99.90;;;;;;5041650;28;20037;-78
2022/11/05 01:26:28;;;;;;;8.68;5.10;;;6.10;99.90;;;;;;5042523;28;20052;-79
2022/11/05 01:28:56;;;;;;;11.15;6.57;;;6.10;99.90;;;;;;5034508;28;20033;-79
2022/11/05 01:31:23;;;;;;;5.40;4.37;;;6.10;99.90;;;;;;5032845;28;20056;-79
2022/11/05 01:33:49;;;;;;;7.35;4.00;;;6.10;99.90;;;;;;5040734;28;20055;-78
2022/11/05 01:36:15;;;;;;;7.45;5.05;;;6.20;99.90;;;;;;5042200;28;20029;-79
2022/11/05 01:38:40;;;;;;;7.03;4.82;;;6.20;99.90;;;;;;5029712;28;20041;-79
2022/11/05 01:41:07;;;;;;;19.77;9.05;;;6.20;99.90;;;;;;5027931;28;20029;-81
2022/11/05 01:43:55;;;;;;;5.25;4.45;;;6.20;99.90;;;;;;5032525;28;20026;-78
2022/11/05 01:46:43;;;;;;;7.18;4.20;;;6.30;99.90;;;;;;5031689;28;20160;-79
2022/11/05 01:49:19;;;;;;;7.65;4.53;;;6.30;99.90;;;;;;5066831;28;20033;-78
2022/11/05 01:51:45;;;;;;;11.38;5.10;;;6.30;99.90;;;;;;5035826;28;20037;-79
2022/11/05 01:54:15;;;;;;;6.18;3.95;;;6.30;99.90;;;;;;5039062;28;20041;-79
2022/11/05 01:56:48;;;;;;;8.45;5.75;;;6.30;99.90;;;;;;5037434;28;20069;-78
2022/11/05 01:59:20;;;;;;;6.05;4.47;;;6.40;99.90;;;;;;5030968;28;20045;-79
2022/11/05 02:01:45;;;;;;;9.48;4.72;;;6.40;99.90;;;;;;5032334;28;20044;-77
2022/11/05 02:04:19;;;;;;;5.80;4.50;;;6.40;99.90;;;;;;5041742;28;20432;-78
2022/11/05 02:06:45;;;;;;;6.55;4.97;;;6.40;99.90;;;;;;5037372;28;20025;-78
2022/11/05 02:09:32;;;;;;;5.85;4.07;;;6.40;99.90;;;;;;5032020;28;20041;-78
2022/11/05 02:11:57;;;;;;;5.85;4.15;;;6.50;99.90;;;;;;5037687;28;20036;-78
2022/11/05 02:14:23;;;;;;;4.22;3.80;;;6.50;99.90;;;;;;5047111;28;20036;-78
2022/11/05 02:17:15;;;;;;;5.18;3.58;;;6.50;99.90;;;;;;5037780;28;20616;-76
2022/11/05 02:20:05;;;;;;;4.07;3.60;;;6.50;99.90;;;;;;5028308;28;20049;-77
2022/11/05 02:22:36;;;;;;;5.95;3.80;;;6.50;99.90;;;;;;5037927;28;20421;-78
2022/11/05 02:25:14;;;;;;;5.15;3.55;;;6.50;99.90;;;;;;5040187;28;20033;-77
2022/11/05 02:28:11;;;;;;;5.25;3.55;;;6.50;99.90;;;;;;5037401;28;20060;-79
2022/11/05 02:31:25;;;;;;;3.83;3.42;;;6.40;99.90;;;;;;5039317;28;20583;-77
2022/11/05 02:34:18;;;;;;;7.93;3.42;;;6.40;99.90;;;;;;5039999;28;20053;-77
2022/11/05 02:37:12;;;;;;;4.63;3.58;;;6.50;99.90;;;;;;5012706;28;20045;-77
2022/11/05 02:40:00;;;;;;;4.63;3.40;;;6.40;99.90;;;;;;5035003;28;20041;-77
2022/11/05 02:42:32;;;;;;;3.53;3.17;;;6.50;99.90;;;;;;5037743;28;20059;-78
2022/11/05 02:45:19;;;;;;;5.88;4.05;;;6.50;99.90;;;;;;5033283;28;20060;-77
2022/11/05 02:47:57;;;;;;;7.65;4.13;;;6.50;99.90;;;;;;5036298;28;20124;-78
2022/11/05 02:50:37;;;;;;;6.97;3.87;;;6.60;99.90;;;;;;5037622;28;20055;-78
2022/11/05 02:53:34;;;;;;;4.07;3.15;;;6.60;99.90;;;;;;5054282;28;20295;-77
2022/11/05 02:56:04;;;;;;;4.20;3.80;;;6.60;99.90;;;;;;5014331;28;20029;-77
2022/11/05 02:58:32;;;;;;;4.00;3.47;;;6.70;99.90;;;;;;5038607;28;20021;-78
2022/11/05 03:00:59;;;;;;;3.80;2.90;;;6.70;99.90;;;;;;5039840;28;20022;-78
2022/11/05 03:03:26;;;;;;;5.30;3.40;;;6.70;99.90;;;;;;5045143;28;20049;-78
2022/11/05 03:06:23;;;;;;;4.07;3.08;;;6.70;99.90;;;;;;5038768;28;20064;-77
2022/11/05 03:08:54;;;;;;;3.38;2.95;;;6.70;99.90;;;;;;5039417;28;20042;-78
2022/11/05 03:11:24;;;;;;;6.55;3.45;;;6.70;99.90;;;;;;5043636;28;20035;-78
2022/11/05 03:14:22;;;;;;;4.40;3.70;;;6.70;99.90;;;;;;5037332;28;20026;-78
2022/11/05 03:17:00;;;;;;;4.47;3.22;;;6.80;99.90;;;;;;5040668;28;20053;-78
2022/11/05 03:19:37;;;;;;;4.03;3.20;;;6.80;99.90;;;;;;5032224;28;20402;-77
2022/11/05 03:22:35;;;;;;;4.10;3.05;;;6.80;99.90;;;;;;5037409;28;20034;-78
2022/11/05 03:25:07;;;;;;;3.55;3.08;;;6.80;99.90;;;;;;5030658;28;20052;-78
2022/11/05 03:27:37;;;;;;;3.60;3.30;;;6.80;99.90;;;;;;5041231;28;20694;-78
2022/11/05 03:30:07;;;;;;;6.82;2.92;;;6.80;99.90;;;;;;5044542;28;20121;-78
2022/11/05 03:32:36;;;;;;;6.32;3.22;;;6.90;99.90;;;;;;5027713;28;20080;-78
2022/11/05 03:35:07;;;;;;;5.00;3.35;;;6.90;99.90;;;;;;5035664;28;20040;-78
2022/11/05 03:37:38;;;;;;;6.07;3.45;;;6.90;99.90;;;;;;5035374;28;20040;-77
2022/11/05 03:40:07;;;;;;;4.65;2.92;;;6.90;99.90;;;;;;5044325;28;20047;-77
2022/11/05 03:42:36;;;;;;;5.95;3.72;;;6.90;99.90;;;;;;5034510;28;20741;-78
2022/11/05 03:45:08;;;;;;;5.28;3.13;;;6.90;99.90;;;;;;5042473;28;20228;-77
2022/11/05 03:47:39;;;;;;;5.55;3.15;;;6.90;99.90;;;;;;5043783;28;20116;-78
2022/11/05 03:50:19;;;;;;;5.05;3.33;;;6.90;99.90;;;;;;5036153;28;20393;-78
2022/11/05 03:52:58;;;;;;;4.03;3.35;;;6.90;99.90;;;;;;5037394;28;20116;-78
2022/11/05 03:55:34;;;;;;;4.47;3.10;;;6.90;99.90;;;;;;5037011;28;20080;-78
2022/11/05 03:58:02;;;;;;;4.82;3.33;;;6.90;99.90;;;;;;5040029;28;20034;-78
2022/11/05 04:00:29;;;;;;;5.07;3.15;;;6.90;99.90;;;;;;5038839;28;20045;-78
2022/11/05 04:02:54;;;;;;;3.83;3.15;;;6.90;99.90;;;;;;5043166;28;20049;-78
2022/11/05 04:05:20;;;;;;;5.55;3.75;;;6.90;99.90;;;;;;5072214;28;20042;-78
2022/11/05 04:13:23;;;;;;;7.35;3.53;;;7.00;99.90;;;;;;5037311;28;20433;-78
2022/11/05 04:18:33;;;;;;;7.63;3.63;;;7.00;99.90;;;;;;5035560;28;20105;-78
2022/11/05 04:26:27;;;;;;;3.50;3.20;;;7.00;99.90;;;;;;5034917;28;20500;-77
2022/11/05 04:31:37;;;;;;;3.30;2.97;;;7.00;99.90;;;;;;5040070;28;20068;-78
2022/11/05 04:34:03;;;;;;;3.35;2.97;;;7.00;99.90;;;;;;5042059;28;20048;-77
2022/11/05 04:36:29;;;;;;;3.60;3.25;;;7.00;99.90;;;;;;5032115;28;20060;-78
2022/11/05 04:38:55;;;;;;;5.47;3.33;;;7.00;99.90;;;;;;5047119;28;20474;-78
2022/11/05 04:41:21;;;;;;;5.00;3.80;;;7.00;99.90;;;;;;5039629;28;20041;-78
2022/11/05 04:43:46;;;;;;;4.32;3.30;;;7.10;99.90;;;;;;5036166;28;20033;-78
2022/11/05 04:46:12;;;;;;;6.75;3.33;;;7.00;99.90;;;;;;5038651;28;20057;-78
2022/11/05 04:48:37;;;;;;;3.88;2.80;;;7.00;99.90;;;;;;5040355;28;20021;-77
2022/11/05 04:51:04;;;;;;;4.00;3.10;;;7.00;99.90;;;;;;5038884;28;20098;-78
2022/11/05 04:53:30;;;;;;;4.22;3.50;;;6.90;99.90;;;;;;5047084;28;20053;-77
2022/11/05 04:56:20;;;;;;;4.47;3.25;;;6.90;99.90;;;;;;5038573;28;20048;-77
2022/11/05 04:58:46;;;;;;;4.43;3.00;;;6.90;99.90;;;;;;5042629;28;20060;-78
2022/11/05 05:01:20;;;;;;;4.30;2.90;;;7.00;99.90;;;;;;5043352;28;20041;-77
2022/11/05 05:03:47;;;;;;;4.38;3.30;;;7.00;99.90;;;;;;5043077;28;20072;-77
2022/11/05 05:06:13;;;;;;;4.53;2.72;;;6.90;99.90;;;;;;5038488;28;20093;-78
2022/11/05 05:08:39;;;;;;;4.68;3.15;;;6.90;99.90;;;;;;5042803;28;20607;-77
2022/11/05 05:11:07;;;;;;;4.40;3.58;;;7.00;99.90;;;;;;5040248;28;20036;-77
2022/11/05 05:13:33;;;;;;;3.80;3.40;;;7.00;99.90;;;;;;5041936;28;20033;-78
2022/11/05 05:16:03;;;;;;;5.60;3.47;;;7.00;99.90;;;;;;5035515;28;20053;-77
2022/11/05 05:18:28;;;;;;;4.30;3.10;;;7.00;99.90;;;;;;5034496;28;20057;-78
2022/11/05 05:23:42;;;;;;;5.72;3.38;;;7.00;99.90;;;;;;5058594;28;20060;-77
2022/11/05 05:26:08;;;;;;;5.20;3.58;;;7.00;99.90;;;;;;5038570;28;20018;-78
2022/11/05 05:28:33;;;;;;;6.55;4.85;;;7.00;99.90;;;;;;5036707;28;20072;-77
2022/11/05 05:30:59;;;;;;;6.13;3.80;;;7.00;99.90;;;;;;5043482;28;20508;-78
2022/11/05 05:33:26;;;;;;;8.20;4.53;;;7.00;99.90;;;;;;5048988;28;20040;-78
2022/11/05 05:35:52;;;;;;;6.80;4.07;;;7.10;99.90;;;;;;5033617;28;20042;-78
2022/11/05 05:38:18;;;;;;;4.78;4.03;;;7.00;99.90;;;;;;5035234;28;20103;-77
2022/11/05 05:40:43;;;;;;;7.32;4.70;;;7.10;99.90;;;;;;5043003;28;20024;-77
2022/11/05 05:43:09;;;;;;;9.30;5.70;;;7.10;99.90;;;;;;5042807;28;20037;-77
2022/11/05 05:45:35;;;;;;;7.32;4.88;;;7.10;99.90;;;;;;5042805;28;20047;-77
2022/11/05 05:48:01;;;;;;;7.63;5.25;;;7.10;99.90;;;;;;5038712;28;20041;-77
2022/11/05 05:50:26;;;;;;;4.72;3.90;;;7.10;99.90;;;;;;5044130;28;20034;-77
2022/11/05 05:52:53;;;;;;;5.95;4.35;;;7.20;99.90;;;;;;5040680;28;20478;-78
2022/11/05 05:55:19;;;;;;;3.90;3.40;;;7.20;99.90;;;;;;5032977;28;20088;-78
2022/11/05 05:57:44;;;;;;;4.43;3.63;;;7.20;99.90;;;;;;5041021;28;20037;-78
2022/11/05 06:00:11;;;;;;;6.22;3.63;;;7.20;99.90;;;;;;5036877;28;20407;-78
2022/11/05 06:02:36;;;;;;;3.50;3.17;;;7.20;99.90;;;;;;5040337;28;20042;-78
2022/11/05 06:05:02;;;;;;;3.50;3.20;;;7.20;99.90;;;;;;5038921;28;20032;-78
2022/11/05 06:07:28;;;;;;;3.60;3.17;;;7.20;99.90;;;;;;5041674;28;20033;-78
2022/11/05 06:09:53;;;;;;;5.50;3.83;;;7.20;99.90;;;;;;5040671;28;20175;-78
2022/11/05 06:12:19;;;;;;;4.93;3.35;;;7.20;99.90;;;;;;5041034;28;20124;-77
2022/11/05 06:14:44;;;;;;;4.47;3.35;;;7.30;99.90;;;;;;5035837;28;20405;-78
2022/11/05 06:17:10;;;;;;;3.35;2.92;;;7.20;99.90;;;;;;5036181;28;20154;-78
2022/11/05 06:19:35;;;;;;;5.35;3.50;;;7.30;99.90;;;;;;5037053;28;20049;-78
2022/11/05 06:22:01;;;;;;;4.40;3.30;;;7.20;99.90;;;;;;5036697;28;20105;-77
2022/11/05 06:24:26;;;;;;;3.53;3.17;;;7.30;99.90;;;;;;5034496;28;20068;-78
2022/11/05 06:26:52;;;;;;;5.00;3.38;;;7.20;99.90;;;;;;5034609;28;20104;-77
2022/11/05 06:29:18;;;;;;;4.20;3.50;;;7.30;99.90;;;;;;5039624;28;20022;-78
2022/11/05 06:31:43;;;;;;;3.50;2.97;;;7.20;99.90;;;;;;5032291;28;20766;-78
2022/11/05 06:34:09;;;;;;;5.35;3.53;;;7.30;99.90;;;;;;5041908;28;20040;-78
2022/11/05 06:36:34;;;;;;;4.57;3.63;;;7.30;99.90;;;;;;5036697;28;20033;-78
2022/11/05 06:39:00;;;;;;;4.00;3.60;;;7.30;99.90;;;;;;5032715;28;20856;-78
2022/11/05 06:41:26;;;;;;;5.28;3.72;;;7.30;99.90;;;;;;5067386;28;20034;-78
2022/11/05 06:43:51;;;;;;;4.43;3.45;;;7.30;99.90;;;;;;5036295;28;20025;-77
2022/11/05 06:46:17;;;;;;;4.53;3.65;;;7.30;99.90;;;;;;5034142;28;20076;-78
2022/11/05 06:48:45;;;;;;;4.45;3.67;;;7.30;99.90;;;;;;5035334;28;20032;-78
2022/11/05 06:51:11;;;;;;;4.80;3.42;;;7.30;99.90;;;;;;5032919;28;20568;-78
2022/11/05 06:53:39;;;;;;;3.63;3.08;;;7.40;99.90;;;;;;5034810;28;20065;-78
2022/11/05 06:56:05;;;;;;;;;;;7.40;99.90;;;;;;5036546;28;20029;-78
2022/11/05 06:58:32;;;;;;;3.08;2.80;;;7.40;99.90;;;;;;5033889;28;19913;-78
2022/11/05 07:01:09;;;;;;;3.60;3.20;;;7.40;99.90;;;;;;5033065;28;20032;-77
2022/11/05 07:03:35;;;;;;;5.32;3.25;;;7.40;99.90;;;;;;5034177;28;20117;-78
2022/11/05 07:06:03;;;;;;;3.17;2.65;;;7.40;99.90;;;;;;5037204;28;20040;-77
2022/11/05 07:08:36;;;;;;;4.93;3.22;;;7.40;99.90;;;;;;5037837;28;20029;-77
2022/11/05 07:11:03;;;;;;;4.28;3.63;;;7.40;99.90;;;;;;5032529;28;20045;-77
2022/11/05 07:13:28;;;;;;;3.85;3.42;;;7.50;99.90;;;;;;5042311;28;20473;-78
2022/11/05 07:15:54;;;;;;;5.70;3.33;;;7.50;99.90;;;;;;5038896;28;20033;-77
2022/11/05 07:18:19;;;;;;;4.80;2.95;;;7.50;99.90;;;;;;5035750;28;20079;-77
2022/11/05 07:20:45;;;;;;;5.65;3.92;;;7.50;99.90;;;;;;5041027;28;20029;-75
2022/11/05 07:23:13;;;;;;;4.40;3.33;;;7.50;99.90;;;;;;5036359;28;20030;-77
2022/11/05 07:25:39;;;;;;;5.55;3.63;;;7.50;99.90;;;;;;5040954;28;20056;-77
2022/11/05 07:28:05;;;;;;;5.05;3.65;;;7.50;99.90;;;;;;5040994;28;20103;-77
2022/11/05 07:30:33;;;;;;;5.82;3.90;;;7.50;99.90;;;;;;5037367;28;20568;-78
2022/11/05 07:32:59;;;;;;;5.63;3.63;;;7.60;99.90;;;;;;5037298;28;20548;-78
2022/11/05 07:35:25;;;;;;;6.60;4.22;;;7.60;99.90;;;;;;5047868;28;20064;-78
2022/11/05 07:37:52;;;;;;;6.15;4.10;;;7.70;99.90;;;;;;5043252;28;20097;-78
2022/11/05 07:40:18;;;;;;;2.65;2.10;;;7.60;99.90;;;;;;5044161;28;20508;-77
2022/11/05 07:42:46;;;;;;;6.75;3.47;;;7.60;99.90;;;;;;5043085;28;20489;-77
2022/11/05 07:45:12;;;;;;;4.93;3.75;;;7.60;99.90;;;;;;5042302;28;20041;-78
2022/11/05 07:47:49;;;;;;;6.03;4.32;;;7.60;99.90;;;;;;5047720;28;20037;-77
2022/11/05 07:50:16;;;;;;;4.70;3.65;;;7.70;99.90;;;;;;5044697;28;20036;-77
2022/11/05 07:52:47;;;;;;;6.43;3.95;;;7.70;99.90;;;;;;5043363;28;20117;-77
2022/11/05 07:55:12;;;;;;;5.80;3.83;;;7.70;99.90;;;;;;5032750;28;20045;-78
2022/11/05 07:57:43;;;;;;;7.72;4.28;;;7.70;99.90;;;;;;5040212;28;20029;-77
2022/11/05 08:00:11;;;;;;;5.47;4.50;;;7.80;99.90;;;;;;5044620;28;20621;-77
2022/11/05 08:02:37;;;;;;;6.88;4.32;;;7.70;99.90;;;;;;5044372;28;20171;-78
2022/11/05 08:05:03;;;;;;;6.82;4.50;;;7.80;99.90;;;;;;5038691;28;20093;-77
2022/11/05 08:07:29;;;;;;;5.93;4.45;;;7.80;99.90;;;;;;5042838;28;20056;-78
2022/11/05 08:09:54;;;;;;;5.22;4.38;;;7.90;99.90;;;;;;5040545;28;20052;-78
2022/11/05 08:12:20;;;;;;;6.70;3.90;;;7.90;99.90;;;;;;5043384;28;20037;-78
2022/11/05 08:14:45;;;;;;;6.57;4.68;;;7.90;99.90;;;;;;5038774;28;20032;-78
2022/11/05 08:17:11;;;;;;;5.55;4.57;;;7.90;99.90;;;;;;5039942;28;20104;-78
2022/11/05 08:19:37;;;;;;;6.45;4.75;;;8.00;99.90;;;;;;5037659;28;20042;-78
2022/11/05 08:22:02;;;;;;;5.57;3.95;;;8.00;99.90;;;;;;5043400;28;20044;-79
2022/11/05 08:24:28;;;;;;;7.38;4.80;;;8.10;99.90;;;;;;5044809;28;20132;-79
2022/11/05 08:26:53;;;;;;;6.45;4.47;;;8.10;99.90;;;;;;5029977;28;20033;-79
2022/11/05 08:29:19;;;;;;;6.18;4.50;;;8.20;99.90;;;;;;5042903;28;20033;-79
2022/11/05 08:31:45;;;;;;;5.32;4.18;;;8.30;99.90;;;;;;5039832;28;20045;-79
2022/11/05 08:34:10;;;;;;;3.10;2.90;;;8.30;99.90;;;;;;5047613;28;20059;-77
2022/11/05 08:36:36;;;;;;;4.70;2.88;;;8.20;99.90;;;;;;5038488;28;20101;-78
2022/11/05 08:39:02;;;;;;;3.58;3.22;;;8.10;99.90;;;;;;5040991;28;20024;-78
2022/11/05 08:41:27;;;;;;;6.15;4.05;;;8.20;99.90;;;;;;5040782;28;20094;-76
2022/11/05 08:43:56;;;;;;;4.60;3.80;;;8.20;99.90;;;;;;5038855;28;20040;-77
2022/11/05 08:46:21;;;;;;;5.00;3.72;;;8.20;99.90;;;;;;5038365;28;20042;-78
2022/11/05 08:48:47;;;;;;;4.70;3.17;;;8.10;99.90;;;;;;5045937;28;20052;-77
2022/11/05 08:51:12;;;;;;;4.70;4.03;;;8.10;99.90;;;;;;5041429;28;20053;-77
2022/11/05 08:53:38;;;;;;;3.72;3.20;;;8.10;99.90;;;;;;5043454;28;20040;-77
2022/11/05 08:56:04;;;;;;;3.47;3.17;;;8.10;99.90;;;;;;5043427;28;20029;-76
2022/11/05 08:58:29;;;;;;;4.80;3.42;;;8.10;99.90;;;;;;5037304;28;20110;-78
2022/11/05 09:00:55;;;;;;;4.18;3.00;;;8.10;99.90;;;;;;5041031;28;20072;-77
2022/11/05 09:03:21;;;;;;;4.53;3.55;;;8.20;99.90;;;;;;5038847;28;20037;-77
2022/11/05 09:05:46;;;;;;;4.18;3.10;;;8.20;99.90;;;;;;5039826;28;20063;-78
2022/11/05 09:08:15;;;;;;;4.05;2.67;;;8.20;99.90;;;;;;5046136;28;20033;-78
2022/11/05 09:10:42;;;;;;;;;;;8.20;99.90;;;;;;5040481;28;20041;-77
2022/11/05 09:13:08;;;;;;;4.95;3.33;;;8.20;99.90;;;;;;5031864;28;19909;-78
2022/11/05 09:15:34;;;;;;;3.30;2.80;;;8.10;99.90;;;;;;5045727;28;20037;-78
2022/11/05 09:18:01;;;;;;;3.20;2.70;;;8.20;99.90;;;;;;5038790;28;20029;-77
2022/11/05 09:20:27;;;;;;;4.72;3.60;;;8.20;99.90;;;;;;5037571;28;20056;-78
2022/11/05 09:22:52;;;;;;;3.60;3.30;;;8.20;99.90;;;;;;5040921;28;20025;-78
2022/11/05 09:25:18;;;;;;;4.97;3.20;;;8.20;99.90;;;;;;5039192;28;20049;-78
2022/11/05 09:27:44;;;;;;;4.20;3.38;;;8.30;99.90;;;;;;5037400;28;20021;-79
2022/11/05 09:30:11;;;;;;;3.83;3.03;;;8.40;99.90;;;;;;5037826;28;20096;-80
2022/11/05 09:32:37;;;;;;;3.10;2.80;;;8.40;99.90;;;;;;5036322;28;20034;-80
2022/11/05 09:35:04;;;;;;;3.55;3.20;;;8.40;99.90;;;;;;5041456;28;20085;-79
2022/11/05 09:37:29;;;;;;;2.78;2.47;;;8.40;99.90;;;;;;5042112;28;20087;-80
2022/11/05 09:39:55;;;;;;;2.88;2.58;;;8.40;99.90;;;;;;5035325;28;20033;-77
2022/11/05 09:42:27;;;;;;;3.30;2.78;;;8.40;99.90;;;;;;5042968;28;20176;-78
2022/11/05 09:45:06;;;;;;;3.30;2.65;;;8.50;99.90;;;;;;5040188;28;20155;-77
2022/11/05 09:47:35;;;;;;;2.85;2.35;;;8.50;99.90;;;;;;5040754;28;20041;-76
2022/11/05 09:50:07;;;;;;;2.15;1.95;;;8.50;99.90;;;;;;5037375;28;20037;-75
2022/11/05 09:52:33;;;;;;;2.30;2.03;;;8.50;99.90;;;;;;5042569;28;20112;-76
2022/11/05 09:55:01;;;;;;;2.70;2.50;;;8.50;99.90;;;;;;5037727;28;20084;-77
2022/11/05 09:57:35;;;;;;;3.42;2.33;;;8.60;99.90;;;;;;5040031;28;20127;-77
2022/11/05 10:00:05;;;;;;;3.20;2.25;;;8.60;99.90;;;;;;5033261;28;20542;-76
2022/11/05 10:02:53;;;;;;;2.40;1.85;;;8.70;99.90;;;;;;5039512;28;20409;-75
2022/11/05 10:05:21;;;;;;;2.25;2.05;;;8.70;99.90;;;;;;5039319;28;20025;-77
2022/11/05 10:07:51;;;;;;;2.60;2.17;;;8.80;99.90;;;;;;5037423;28;20096;-77
2022/11/05 10:10:31;;;;;;;2.95;2.42;;;8.80;99.90;;;;;;5036243;28;20029;-76
2022/11/05 10:13:03;;;;;;;1.85;1.65;;;8.90;99.90;;;;;;5042243;28;20045;-76
2022/11/05 10:15:40;;;;;;;1.40;1.30;;;8.90;99.90;;;;;;5037385;28;20041;-77
2022/11/05 10:18:24;;;;;;;2.40;2.20;;;8.90;99.90;;;;;;5040143;28;20075;-76
2022/11/05 10:20:50;;;;;;;5.55;2.20;;;8.80;99.90;;;;;;5036383;28;20113;-77
2022/11/05 10:23:19;;;;;;;2.45;2.08;;;8.80;99.90;;;;;;5039992;28;20489;-76
2022/11/05 10:25:51;;;;;;;1.95;1.85;;;8.80;99.90;;;;;;5037300;28;20107;-78
2022/11/05 10:28:22;;;;;;;1.55;1.45;;;8.80;99.90;;;;;;5040471;28;20044;-78
2022/11/05 10:30:51;;;;;;;2.28;1.90;;;8.80;99.90;;;;;;5047931;28;20042;-80
2022/11/05 10:33:29;;;;;;;1.00;0.98;;;8.80;99.90;;;;;;5039261;28;20056;-79
2022/11/05 10:36:01;;;;;;;2.30;2.10;;;8.80;99.90;;;;;;5038868;28;20037;-79
2022/11/05 10:38:26;;;;;;;2.28;2.10;;;8.80;99.90;;;;;;5037205;28;20095;-79
2022/11/05 10:41:04;;;;;;;1.65;1.55;;;8.80;99.90;;;;;;5041821;28;20712;-79
2022/11/05 10:43:36;;;;;;;;;;;8.80;99.90;;;;;;5036918;28;20067;-79
2022/11/05 10:46:24;;;;;;;1.40;1.30;;;8.80;99.90;;;;;;5037266;28;19921;-79
2022/11/05 10:49:17;;;;;;;1.58;0.80;;;8.80;99.90;;;;;;5031229;28;20029;-79
2022/11/05 10:51:45;;;;;;;1.00;0.98;;;8.80;99.90;;;;;;5023596;28;20768;-79
2022/11/05 10:54:17;;;;;;;1.70;1.60;;;8.90;99.90;;;;;;5034818;28;20103;-79
2022/11/05 10:56:43;;;;;;;1.70;1.40;;;8.90;99.90;;;;;;5034405;28;20049;-79
2022/11/05 10:59:37;;;;;;;2.63;1.88;;;8.90;99.90;;;;;;5031700;28;20061;-80
2022/11/05 11:02:19;;;;;;;1.80;1.70;;;8.90;99.90;;;;;;5030628;28;20045;-78
2022/11/05 11:04:51;;;;;;;2.20;2.00;;;8.90;99.90;;;;;;5033934;28;20045;-78
2022/11/05 11:07:21;;;;;;;2.28;1.70;;;8.90;99.90;;;;;;5038992;28;20038;-78
2022/11/05 11:09:48;;;;;;;2.05;1.85;;;8.90;99.90;;;;;;5043082;28;20034;-78
2022/11/05 11:12:20;;;;;;;2.28;2.08;;;9.00;99.90;;;;;;5036904;28;20040;-78
2022/11/05 11:15:13;;;;;;;2.58;2.30;;;8.90;99.90;;;;;;5031405;28;20053;-78
2022/11/05 11:17:39;;;;;;;1.08;1.05;;;9.00;99.90;;;;;;5040531;28;20060;-77
2022/11/05 11:20:28;;;;;;;1.20;1.10;;;8.90;99.90;;;;;;5032779;28;20072;-78
2022/11/05 11:22:59;;;;;;;2.25;2.05;;;8.90;99.90;;;;;;5032997;28;20026;-78
2022/11/05 11:25:28;;;;;;;1.95;1.50;;;9.00;99.90;;;;;;5035170;28;20109;-78
2022/11/05 11:27:54;;;;;;;;;;;9.10;99.90;;;;;;5037095;28;20017;-77
2022/11/05 11:30:20;;;;;;;0.70;0.70;;;9.20;99.90;;;;;;5029230;28;19917;-78
2022/11/05 11:32:47;;;;;;;0.80;0.80;;;9.20;99.90;;;;;;5036577;28;20067;-78
2022/11/05 11:35:22;;;;;;;1.13;1.10;;;9.40;99.90;;;;;;5036034;28;20041;-78
2022/11/05 11:37:48;;;;;;;1.75;0.82;;;9.50;99.90;;;;;;5028240;28;20062;-80
2022/11/05 11:40:29;;;;;;;1.20;1.10;;;9.60;99.90;;;;;;5037396;28;20044;-78
2022/11/05 11:42:59;;;;;;;0.80;0.70;;;9.60;99.90;;;;;;5032964;28;20049;-77
2022/11/05 11:45:57;;;;;;;1.52;1.42;;;9.50;99.90;;;;;;5034113;28;20049;-80
2022/11/05 11:48:28;;;;;;;1.73;1.42;;;9.50;99.90;;;;;;5030522;28;20041;-80
2022/11/05 11:50:54;;;;;;;1.30;1.23;;;9.50;99.90;;;;;;5036344;28;20060;-80
2022/11/05 11:53:20;;;;;;;0.95;0.95;;;9.50;99.90;;;;;;5042275;28;20009;-81
2022/11/05 11:56:13;;;;;;;1.45;1.17;;;9.50;99.90;;;;;;5034645;28;20039;-78
2022/11/05 11:58:51;;;;;;;1.33;1.20;;;9.40;99.90;;;;;;5035137;28;20029;-79
2022/11/05 12:01:38;;;;;;;1.55;1.40;;;9.40;99.90;;;;;;5037777;28;20113;-81
2022/11/05 12:04:20;;;;;;;2.47;1.58;;;9.50;99.90;;;;;;5034940;28;20121;-80
2022/11/05 12:07:04;;;;;;;2.42;2.22;;;9.50;99.90;;;;;;5039833;28;20057;-80
2022/11/05 12:10:03;;;;;;;2.67;2.10;;;9.60;99.90;;;;;;5036995;28;20042;-80
2022/11/05 12:13:19;;;;;;;2.90;2.17;;;9.60;99.90;;;;;;5053975;28;20041;-80
2022/11/05 12:16:13;;;;;;;2.63;2.42;;;9.60;99.90;;;;;;5019398;28;20259;-79
2022/11/05 12:18:53;;;;;;;2.25;2.05;;;9.60;99.90;;;;;;5038075;28;20034;-80
2022/11/05 12:21:45;;;;;;;4.22;3.15;;;9.50;99.90;;;;;;5035733;28;20025;-79
2022/11/05 12:24:29;;;;;;;3.38;2.38;;;9.50;99.90;;;;;;5032970;28;20045;-79
2022/11/05 12:27:25;;;;;;;4.47;2.33;;;9.50;99.90;;;;;;5042742;28;20083;-79
2022/11/05 12:30:12;;;;;;;3.65;2.15;;;9.50;99.90;;;;;;5032946;28;20030;-79
2022/11/05 12:32:47;;;;;;;4.43;2.70;;;9.50;99.90;;;;;;5045184;28;20037;-79
2022/11/05 12:35:56;;;;;;;2.88;2.40;;;9.40;99.90;;;;;;5047013;28;20037;-79
2022/11/05 12:38:28;;;;;;;3.47;2.67;;;9.50;99.90;;;;;;5036504;28;20509;-79
2022/11/05 12:41:24;;;;;;;2.60;2.33;;;9.60;99.90;;;;;;5032805;28;20602;-79
2022/11/05 12:44:13;;;;;;;3.38;2.40;;;9.60;99.90;;;;;;5039993;28;20040;-79
2022/11/05 12:46:57;;;;;;;3.00;2.58;;;9.60;99.90;;;;;;5037673;28;20037;-79
2022/11/05 12:49:53;;;;;;;2.78;2.45;;;9.70;99.90;;;;;;5040961;28;20029;-78
2022/11/05 12:52:44;;;;;;;3.35;3.00;;;9.70;99.90;;;;;;5028775;28;20062;-80
2022/11/05 12:55:21;;;;;;;5.20;3.15;;;9.70;99.90;;;;;;5034775;28;20057;-79
2022/11/05 12:57:51;;;;;;;2.90;2.38;;;9.70;99.90;;;;;;5039038;28;20033;-79
2022/11/05 13:00:19;;;;;;;1.52;1.25;;;9.70;99.90;;;;;;5040049;28;20056;-78
2022/11/05 13:02:55;;;;;;;5.55;3.28;;;9.60;99.90;;;;;;5040676;28;20040;-79
2022/11/05 13:05:40;;;;;;;1.50;1.38;;;9.60;99.90;;;;;;5036567;28;20037;-78
2022/11/05 13:08:09;;;;;;;5.63;3.55;;;9.50;99.90;;;;;;5068565;28;20036;-79
2022/11/05 13:10:52;;;;;;;4.43;3.08;;;9.50;99.90;;;;;;5041592;28;20017;-80
2022/11/05 13:13:41;;;;;;;4.72;3.30;;;9.50;99.90;;;;;;5034220;28;20025;-79
2022/11/05 13:16:24;;;;;;;3.35;2.85;;;9.40;99.90;;;;;;5040745;28;20116;-78
2022/11/05 13:18:52;;;;;;;3.85;3.05;;;9.30;99.90;;;;;;5040124;28;20037;-79
2022/11/05 13:21:22;;;;;;;4.57;3.28;;;9.20;99.90;;;;;;5031429;28;20635;-78
2022/11/05 13:23:55;;;;;;;6.72;4.50;;;9.20;99.90;;;;;;5039881;28;20087;-80
2022/11/05 13:26:42;;;;;;;3.72;3.10;;;9.20;99.90;;;;;;5041143;28;20545;-79
2022/11/05 13:29:37;;;;;;;6.97;3.75;;;9.20;99.90;;;;;;5043119;28;20108;-79
2022/11/05 13:32:30;;;;;;;6.00;3.00;;;9.30;99.90;;;;;;5034901;28;20045;-79
2022/11/05 13:35:00;;;;;;;4.95;3.60;;;9.30;99.90;;;;;;5044091;28;20112;-79
2022/11/05 13:40:51;;;;;;;4.40;3.40;;;9.40;99.90;;;;;;5033005;28;20029;-79
2022/11/05 13:43:29;;;;;;;5.45;3.58;;;9.50;99.90;;;;;;5035693;28;20025;-80
2022/11/05 13:46:14;;;;;;;5.63;3.97;;;9.60;99.90;;;;;;5042001;28;20151;-79
2022/11/05 13:49:11;;;;;;;6.35;4.00;;;9.70;99.90;;;;;;5041396;28;20097;-79
2022/11/05 13:51:37;;;;;;;3.50;2.88;;;9.70;99.90;;;;;;5023934;28;20045;-79
2022/11/05 13:54:05;;;;;;;4.05;3.08;;;9.70;99.90;;;;;;5039831;28;20037;-79
2022/11/05 13:57:10;;;;;;;5.25;3.28;;;9.60;99.90;;;;;;5036196;28;20065;-82
2022/11/05 13:59:45;;;;;;;2.50;2.25;;;9.60;99.90;;;;;;5025601;28;20049;-81
2022/11/05 14:02:19;;;;;;;4.22;2.90;;;9.50;99.90;;;;;;5043573;28;20037;-81
2022/11/05 14:04:44;;;;;;;5.78;4.05;;;9.50;99.90;;;;;;5035731;28;20037;-82
2022/11/05 14:07:18;;;;;;;3.97;3.03;;;9.40;99.90;;;;;;5042256;28;20108;-82
2022/11/05 14:09:47;;;;;;;5.45;3.33;;;9.20;99.90;;;;;;5034524;28;20033;-79